sensor_id;sensor_type;location;lat;lon;timestamp;P1;durP1;ratioP1;P2;durP2;ratioP2
67904;SDS011;54709;43.614;1.576;2024-01-16T00:02:10;8.60;;;7.78;;
67904;SDS011;54709;43.614;1.576;2024-01-16T00:04:38;11.90;;;8.90;;
67904;SDS011;54709;43.614;1.576;2024-01-16T00:07:05;11.55;;;9.45;;
67904;SDS011;54709;43.614;1.576;2024-01-16T00:09:34;11.90;;;9.45;;
67904;SDS011;54709;43.614;1.576;2024-01-16T00:11:59;19.88;;;9.82;;
67904;SDS011;54709;43.614;1.576;2024-01-16T00:14:25;12.05;;;9.63;;
67904;SDS011;54709;43.614;1.576;2024-01-16T00:16:50;14.88;;;10.18;;
67904;SDS011;54709;43.614;1.576;2024-01-16T00:19:16;18.58;;;12.05;;
67904;SDS011;54709;43.614;1.576;2024-01-16T00:21:43;15.60;;;11.02;;
67904;SDS011;54709;43.614;1.576;2024-01-16T00:24:11;13.02;;;9.90;;
67904;SDS011;54709;43.614;1.576;2024-01-16T00:26:36;10.80;;;9.50;;
67904;SDS011;54709;43.614;1.576;2024-01-16T00:29:02;10.55;;;9.50;;
67904;SDS011;54709;43.614;1.576;2024-01-16T00:31:27;13.02;;;9.55;;
67904;SDS011;54709;43.614;1.576;2024-01-16T00:33:52;9.43;;;8.30;;
67904;SDS011;54709;43.614;1.576;2024-01-16T00:36:18;9.82;;;8.25;;
67904;SDS011;54709;43.614;1.576;2024-01-16T00:38:44;10.23;;;8.25;;
67904;SDS011;54709;43.614;1.576;2024-01-16T00:41:10;11.82;;;9.02;;
67904;SDS011;54709;43.614;1.576;2024-01-16T00:43:35;9.18;;;8.13;;
67904;SDS011;54709;43.614;1.576;2024-01-16T00:46:01;10.30;;;8.68;;
67904;SDS011;54709;43.614;1.576;2024-01-16T00:48:26;10.98;;;9.02;;
67904;SDS011;54709;43.614;1.576;2024-01-16T00:50:51;12.98;;;9.43;;
67904;SDS011;54709;43.614;1.576;2024-01-16T00:53:17;10.88;;;9.30;;
67904;SDS011;54709;43.614;1.576;2024-01-16T00:55:42;12.65;;;9.60;;
67904;SDS011;54709;43.614;1.576;2024-01-16T00:58:08;11.55;;;8.35;;
67904;SDS011;54709;43.614;1.576;2024-01-16T01:00:33;8.68;;;7.45;;
67904;SDS011;54709;43.614;1.576;2024-01-16T01:03:00;11.77;;;8.35;;
67904;SDS011;54709;43.614;1.576;2024-01-16T01:05:25;8.70;;;7.75;;
67904;SDS011;54709;43.614;1.576;2024-01-16T01:07:56;8.45;;;7.38;;
67904;SDS011;54709;43.614;1.576;2024-01-16T01:10:22;8.43;;;6.78;;
67904;SDS011;54709;43.614;1.576;2024-01-16T01:12:48;10.45;;;6.70;;
67904;SDS011;54709;43.614;1.576;2024-01-16T01:15:13;7.80;;;5.60;;
67904;SDS011;54709;43.614;1.576;2024-01-16T01:17:39;8.60;;;5.05;;
67904;SDS011;54709;43.614;1.576;2024-01-16T01:20:05;6.75;;;4.32;;
67904;SDS011;54709;43.614;1.576;2024-01-16T01:22:31;7.10;;;4.53;;
67904;SDS011;54709;43.614;1.576;2024-01-16T01:24:57;5.32;;;4.05;;
67904;SDS011;54709;43.614;1.576;2024-01-16T01:27:22;4.88;;;3.83;;
67904;SDS011;54709;43.614;1.576;2024-01-16T01:29:47;5.35;;;3.75;;
67904;SDS011;54709;43.614;1.576;2024-01-16T01:32:13;8.80;;;4.72;;
67904;SDS011;54709;43.614;1.576;2024-01-16T01:34:40;9.40;;;4.82;;
67904;SDS011;54709;43.614;1.576;2024-01-16T01:37:06;5.85;;;3.90;;
67904;SDS011;54709;43.614;1.576;2024-01-16T01:39:32;8.13;;;4.68;;
67904;SDS011;54709;43.614;1.576;2024-01-16T01:41:57;6.72;;;3.70;;
67904;SDS011;54709;43.614;1.576;2024-01-16T01:44:22;5.88;;;3.50;;
67904;SDS011;54709;43.614;1.576;2024-01-16T01:46:49;5.28;;;3.05;;
67904;SDS011;54709;43.614;1.576;2024-01-16T01:49:15;3.95;;;2.85;;
67904;SDS011;54709;43.614;1.576;2024-01-16T01:51:40;3.83;;;2.30;;
67904;SDS011;54709;43.614;1.576;2024-01-16T01:54:07;3.28;;;2.05;;
67904;SDS011;54709;43.614;1.576;2024-01-16T01:56:32;4.60;;;1.90;;
67904;SDS011;54709;43.614;1.576;2024-01-16T01:58:58;4.45;;;2.20;;
67904;SDS011;54709;43.614;1.576;2024-01-16T02:01:24;4.22;;;2.13;;
67904;SDS011;54709;43.614;1.576;2024-01-16T02:03:51;3.15;;;2.05;;
67904;SDS011;54709;43.614;1.576;2024-01-16T02:06:17;4.53;;;2.40;;
67904;SDS011;54709;43.614;1.576;2024-01-16T02:08:43;4.00;;;2.67;;
67904;SDS011;54709;43.614;1.576;2024-01-16T02:11:09;4.00;;;2.00;;
67904;SDS011;54709;43.614;1.576;2024-01-16T02:13:35;4.30;;;2.58;;
67904;SDS011;54709;43.614;1.576;2024-01-16T02:16:00;5.45;;;2.17;;
67904;SDS011;54709;43.614;1.576;2024-01-16T02:18:26;3.65;;;1.92;;
67904;SDS011;54709;43.614;1.576;2024-01-16T02:20:51;3.35;;;2.10;;
67904;SDS011;54709;43.614;1.576;2024-01-16T02:23:21;4.05;;;2.45;;
67904;SDS011;54709;43.614;1.576;2024-01-16T02:25:51;6.07;;;2.10;;
67904;SDS011;54709;43.614;1.576;2024-01-16T02:28:16;4.45;;;2.38;;
67904;SDS011;54709;43.614;1.576;2024-01-16T02:30:42;4.32;;;2.33;;
67904;SDS011;54709;43.614;1.576;2024-01-16T02:33:07;4.28;;;2.60;;
67904;SDS011;54709;43.614;1.576;2024-01-16T02:35:33;3.05;;;2.35;;
67904;SDS011;54709;43.614;1.576;2024-01-16T02:37:58;4.05;;;2.55;;
67904;SDS011;54709;43.614;1.576;2024-01-16T02:40:25;3.67;;;2.65;;
67904;SDS011;54709;43.614;1.576;2024-01-16T02:42:51;5.15;;;2.58;;
67904;SDS011;54709;43.614;1.576;2024-01-16T02:45:16;3.40;;;2.47;;
67904;SDS011;54709;43.614;1.576;2024-01-16T02:47:42;2.90;;;2.28;;
67904;SDS011;54709;43.614;1.576;2024-01-16T02:50:07;2.53;;;2.20;;
67904;SDS011;54709;43.614;1.576;2024-01-16T02:52:34;2.80;;;2.05;;
67904;SDS011;54709;43.614;1.576;2024-01-16T02:55:00;2.65;;;1.80;;
67904;SDS011;54709;43.614;1.576;2024-01-16T02:57:26;2.22;;;1.67;;
67904;SDS011;54709;43.614;1.576;2024-01-16T02:59:51;2.88;;;1.70;;
67904;SDS011;54709;43.614;1.576;2024-01-16T03:02:16;3.33;;;1.60;;
67904;SDS011;54709;43.614;1.576;2024-01-16T03:04:42;4.47;;;1.60;;
67904;SDS011;54709;43.614;1.576;2024-01-16T03:07:07;2.72;;;1.48;;
67904;SDS011;54709;43.614;1.576;2024-01-16T03:09:32;1.88;;;1.50;;
67904;SDS011;54709;43.614;1.576;2024-01-16T03:11:58;3.35;;;1.25;;
67904;SDS011;54709;43.614;1.576;2024-01-16T03:14:24;5.03;;;1.50;;
67904;SDS011;54709;43.614;1.576;2024-01-16T03:16:49;2.92;;;1.40;;
67904;SDS011;54709;43.614;1.576;2024-01-16T03:19:15;2.75;;;1.20;;
67904;SDS011;54709;43.614;1.576;2024-01-16T03:21:40;2.95;;;1.50;;
67904;SDS011;54709;43.614;1.576;2024-01-16T03:24:06;3.40;;;1.48;;
67904;SDS011;54709;43.614;1.576;2024-01-16T03:26:31;1.58;;;1.48;;
67904;SDS011;54709;43.614;1.576;2024-01-16T03:28:57;3.97;;;1.50;;
67904;SDS011;54709;43.614;1.576;2024-01-16T03:31:23;2.10;;;1.67;;
67904;SDS011;54709;43.614;1.576;2024-01-16T03:33:50;2.30;;;1.65;;
67904;SDS011;54709;43.614;1.576;2024-01-16T03:36:16;1.67;;;1.58;;
67904;SDS011;54709;43.614;1.576;2024-01-16T03:38:44;5.97;;;1.50;;
67904;SDS011;54709;43.614;1.576;2024-01-16T03:41:13;2.88;;;1.70;;
67904;SDS011;54709;43.614;1.576;2024-01-16T03:43:39;1.73;;;1.60;;
67904;SDS011;54709;43.614;1.576;2024-01-16T03:46:05;2.58;;;1.90;;
67904;SDS011;54709;43.614;1.576;2024-01-16T03:48:30;4.07;;;2.08;;
67904;SDS011;54709;43.614;1.576;2024-01-16T03:50:55;2.58;;;1.92;;
67904;SDS011;54709;43.614;1.576;2024-01-16T03:53:21;2.00;;;1.80;;
67904;SDS011;54709;43.614;1.576;2024-01-16T03:55:47;3.60;;;2.08;;
67904;SDS011;54709;43.614;1.576;2024-01-16T03:58:14;2.20;;;1.98;;
67904;SDS011;54709;43.614;1.576;2024-01-16T04:00:40;3.25;;;1.90;;
67904;SDS011;54709;43.614;1.576;2024-01-16T04:03:06;5.10;;;2.33;;
67904;SDS011;54709;43.614;1.576;2024-01-16T04:05:32;2.90;;;2.13;;
67904;SDS011;54709;43.614;1.576;2024-01-16T04:07:57;3.80;;;2.22;;
67904;SDS011;54709;43.614;1.576;2024-01-16T04:10:23;4.00;;;2.38;;
67904;SDS011;54709;43.614;1.576;2024-01-16T04:12:48;4.28;;;2.30;;
67904;SDS011;54709;43.614;1.576;2024-01-16T04:15:14;3.05;;;2.53;;
67904;SDS011;54709;43.614;1.576;2024-01-16T04:17:39;3.42;;;2.35;;
67904;SDS011;54709;43.614;1.576;2024-01-16T04:20:05;3.70;;;2.70;;
67904;SDS011;54709;43.614;1.576;2024-01-16T04:22:32;3.90;;;3.03;;
67904;SDS011;54709;43.614;1.576;2024-01-16T04:24:57;5.68;;;2.40;;
67904;SDS011;54709;43.614;1.576;2024-01-16T04:27:23;4.07;;;2.80;;
67904;SDS011;54709;43.614;1.576;2024-01-16T04:29:49;3.97;;;2.85;;
67904;SDS011;54709;43.614;1.576;2024-01-16T04:32:14;4.80;;;2.70;;
67904;SDS011;54709;43.614;1.576;2024-01-16T04:34:39;4.30;;;2.90;;
67904;SDS011;54709;43.614;1.576;2024-01-16T04:37:05;6.22;;;3.80;;
67904;SDS011;54709;43.614;1.576;2024-01-16T04:39:30;5.85;;;3.92;;
67904;SDS011;54709;43.614;1.576;2024-01-16T04:41:55;6.53;;;4.13;;
67904;SDS011;54709;43.614;1.576;2024-01-16T04:44:21;8.93;;;5.28;;
67904;SDS011;54709;43.614;1.576;2024-01-16T04:46:46;5.75;;;4.93;;
67904;SDS011;54709;43.614;1.576;2024-01-16T04:49:11;7.07;;;4.43;;
67904;SDS011;54709;43.614;1.576;2024-01-16T04:51:37;5.18;;;4.75;;
67904;SDS011;54709;43.614;1.576;2024-01-16T04:54:02;7.18;;;4.78;;
67904;SDS011;54709;43.614;1.576;2024-01-16T04:56:27;5.85;;;5.20;;
67904;SDS011;54709;43.614;1.576;2024-01-16T04:58:53;5.32;;;4.82;;
67904;SDS011;54709;43.614;1.576;2024-01-16T05:01:18;5.40;;;4.90;;
67904;SDS011;54709;43.614;1.576;2024-01-16T05:03:44;6.53;;;4.97;;
67904;SDS011;54709;43.614;1.576;2024-01-16T05:06:12;8.13;;;4.95;;
67904;SDS011;54709;43.614;1.576;2024-01-16T05:11:06;7.20;;;5.00;;
67904;SDS011;54709;43.614;1.576;2024-01-16T05:13:32;7.85;;;5.38;;
67904;SDS011;54709;43.614;1.576;2024-01-16T05:15:57;5.85;;;4.97;;
67904;SDS011;54709;43.614;1.576;2024-01-16T05:18:23;7.07;;;5.63;;
67904;SDS011;54709;43.614;1.576;2024-01-16T05:20:48;8.65;;;6.53;;
67904;SDS011;54709;43.614;1.576;2024-01-16T05:23:14;8.48;;;5.57;;
67904;SDS011;54709;43.614;1.576;2024-01-16T05:25:39;7.90;;;5.95;;
67904;SDS011;54709;43.614;1.576;2024-01-16T05:28:04;7.32;;;5.85;;
67904;SDS011;54709;43.614;1.576;2024-01-16T05:30:30;9.07;;;5.88;;
67904;SDS011;54709;43.614;1.576;2024-01-16T05:32:55;7.72;;;5.55;;
67904;SDS011;54709;43.614;1.576;2024-01-16T05:35:21;7.78;;;6.05;;
67904;SDS011;54709;43.614;1.576;2024-01-16T05:37:46;7.72;;;6.07;;
67904;SDS011;54709;43.614;1.576;2024-01-16T05:40:12;8.75;;;5.93;;
67904;SDS011;54709;43.614;1.576;2024-01-16T05:42:38;6.68;;;5.35;;
67904;SDS011;54709;43.614;1.576;2024-01-16T05:45:03;6.38;;;5.40;;
67904;SDS011;54709;43.614;1.576;2024-01-16T05:47:29;8.27;;;5.32;;
67904;SDS011;54709;43.614;1.576;2024-01-16T05:49:56;6.78;;;5.25;;
67904;SDS011;54709;43.614;1.576;2024-01-16T05:52:22;9.73;;;5.15;;
67904;SDS011;54709;43.614;1.576;2024-01-16T05:54:47;5.68;;;4.60;;
67904;SDS011;54709;43.614;1.576;2024-01-16T05:57:12;7.07;;;5.10;;
67904;SDS011;54709;43.614;1.576;2024-01-16T05:59:38;5.57;;;4.80;;
67904;SDS011;54709;43.614;1.576;2024-01-16T06:02:03;4.55;;;3.60;;
67904;SDS011;54709;43.614;1.576;2024-01-16T06:04:29;4.00;;;3.17;;
67904;SDS011;54709;43.614;1.576;2024-01-16T06:06:54;3.88;;;3.47;;
67904;SDS011;54709;43.614;1.576;2024-01-16T06:09:19;4.95;;;3.33;;
67904;SDS011;54709;43.614;1.576;2024-01-16T06:11:45;7.47;;;3.38;;
67904;SDS011;54709;43.614;1.576;2024-01-16T06:14:10;3.40;;;3.08;;
67904;SDS011;54709;43.614;1.576;2024-01-16T06:16:37;3.30;;;2.60;;
67904;SDS011;54709;43.614;1.576;2024-01-16T06:19:02;4.38;;;2.45;;
67904;SDS011;54709;43.614;1.576;2024-01-16T06:21:28;2.45;;;2.22;;
67904;SDS011;54709;43.614;1.576;2024-01-16T06:23:53;2.00;;;1.77;;
67904;SDS011;54709;43.614;1.576;2024-01-16T06:26:19;2.00;;;1.60;;
67904;SDS011;54709;43.614;1.576;2024-01-16T06:28:44;4.55;;;1.90;;
67904;SDS011;54709;43.614;1.576;2024-01-16T06:31:10;2.92;;;1.70;;
67904;SDS011;54709;43.614;1.576;2024-01-16T06:33:35;1.95;;;1.45;;
67904;SDS011;54709;43.614;1.576;2024-01-16T06:36:01;3.47;;;1.40;;
67904;SDS011;54709;43.614;1.576;2024-01-16T06:38:29;2.88;;;1.50;;
67904;SDS011;54709;43.614;1.576;2024-01-16T06:40:55;3.35;;;1.40;;
67904;SDS011;54709;43.614;1.576;2024-01-16T06:43:21;3.22;;;1.60;;
67904;SDS011;54709;43.614;1.576;2024-01-16T06:45:46;4.88;;;1.58;;
67904;SDS011;54709;43.614;1.576;2024-01-16T06:48:12;2.92;;;1.40;;
67904;SDS011;54709;43.614;1.576;2024-01-16T06:50:37;3.30;;;1.30;;
67904;SDS011;54709;43.614;1.576;2024-01-16T06:53:02;1.20;;;1.10;;
67904;SDS011;54709;43.614;1.576;2024-01-16T06:55:28;1.58;;;1.20;;
67904;SDS011;54709;43.614;1.576;2024-01-16T06:57:53;2.38;;;1.40;;
67904;SDS011;54709;43.614;1.576;2024-01-16T07:00:19;4.28;;;1.30;;
67904;SDS011;54709;43.614;1.576;2024-01-16T07:02:45;2.00;;;1.20;;
67904;SDS011;54709;43.614;1.576;2024-01-16T07:05:13;2.78;;;1.08;;
67904;SDS011;54709;43.614;1.576;2024-01-16T07:07:39;2.70;;;0.90;;
67904;SDS011;54709;43.614;1.576;2024-01-16T07:10:04;3.40;;;1.10;;
67904;SDS011;54709;43.614;1.576;2024-01-16T07:12:33;2.85;;;1.10;;
67904;SDS011;54709;43.614;1.576;2024-01-16T07:14:59;1.67;;;1.17;;
67904;SDS011;54709;43.614;1.576;2024-01-16T07:17:24;2.60;;;1.10;;
67904;SDS011;54709;43.614;1.576;2024-01-16T07:19:49;1.63;;;1.10;;
67904;SDS011;54709;43.614;1.576;2024-01-16T07:22:15;2.42;;;1.20;;
67904;SDS011;54709;43.614;1.576;2024-01-16T07:24:41;1.10;;;1.00;;
67904;SDS011;54709;43.614;1.576;2024-01-16T07:27:06;3.13;;;1.00;;
67904;SDS011;54709;43.614;1.576;2024-01-16T07:29:31;2.05;;;0.82;;
67904;SDS011;54709;43.614;1.576;2024-01-16T07:31:57;2.15;;;1.13;;
67904;SDS011;54709;43.614;1.576;2024-01-16T07:34:23;2.33;;;1.10;;
67904;SDS011;54709;43.614;1.576;2024-01-16T07:36:48;3.22;;;1.40;;
67904;SDS011;54709;43.614;1.576;2024-01-16T07:39:13;1.67;;;1.10;;
67904;SDS011;54709;43.614;1.576;2024-01-16T07:41:39;3.35;;;1.30;;
67904;SDS011;54709;43.614;1.576;2024-01-16T07:44:05;3.45;;;1.67;;
67904;SDS011;54709;43.614;1.576;2024-01-16T07:46:30;7.95;;;1.75;;
67904;SDS011;54709;43.614;1.576;2024-01-16T07:48:55;5.72;;;1.90;;
67904;SDS011;54709;43.614;1.576;2024-01-16T07:51:21;7.40;;;1.67;;
67904;SDS011;54709;43.614;1.576;2024-01-16T07:53:46;7.50;;;1.75;;
67904;SDS011;54709;43.614;1.576;2024-01-16T07:56:13;4.57;;;2.17;;
67904;SDS011;54709;43.614;1.576;2024-01-16T07:58:39;6.30;;;2.97;;
67904;SDS011;54709;43.614;1.576;2024-01-16T08:01:04;5.10;;;3.90;;
67904;SDS011;54709;43.614;1.576;2024-01-16T08:03:30;4.32;;;3.20;;
67904;SDS011;54709;43.614;1.576;2024-01-16T08:05:55;4.05;;;3.13;;
67904;SDS011;54709;43.614;1.576;2024-01-16T08:08:21;3.88;;;2.33;;
67904;SDS011;54709;43.614;1.576;2024-01-16T08:10:46;3.95;;;2.30;;
67904;SDS011;54709;43.614;1.576;2024-01-16T08:13:12;3.10;;;2.03;;
67904;SDS011;54709;43.614;1.576;2024-01-16T08:15:38;3.50;;;1.77;;
67904;SDS011;54709;43.614;1.576;2024-01-16T08:18:03;3.15;;;1.98;;
67904;SDS011;54709;43.614;1.576;2024-01-16T08:20:29;1.77;;;1.67;;
67904;SDS011;54709;43.614;1.576;2024-01-16T08:22:54;2.67;;;1.85;;
67904;SDS011;54709;43.614;1.576;2024-01-16T08:25:19;3.38;;;2.15;;
67904;SDS011;54709;43.614;1.576;2024-01-16T08:27:45;3.28;;;1.73;;
67904;SDS011;54709;43.614;1.576;2024-01-16T08:30:10;3.67;;;1.92;;
67904;SDS011;54709;43.614;1.576;2024-01-16T08:32:39;3.40;;;1.95;;
67904;SDS011;54709;43.614;1.576;2024-01-16T08:35:04;3.80;;;1.73;;
67904;SDS011;54709;43.614;1.576;2024-01-16T08:37:31;3.13;;;1.98;;
67904;SDS011;54709;43.614;1.576;2024-01-16T08:39:58;2.88;;;1.30;;
67904;SDS011;54709;43.614;1.576;2024-01-16T08:42:23;2.67;;;1.58;;
67904;SDS011;54709;43.614;1.576;2024-01-16T08:44:49;2.42;;;1.63;;
67904;SDS011;54709;43.614;1.576;2024-01-16T08:47:14;2.75;;;1.80;;
67904;SDS011;54709;43.614;1.576;2024-01-16T08:49:40;4.90;;;2.50;;
67904;SDS011;54709;43.614;1.576;2024-01-16T08:52:05;4.95;;;2.65;;
67904;SDS011;54709;43.614;1.576;2024-01-16T08:54:31;5.07;;;2.92;;
67904;SDS011;54709;43.614;1.576;2024-01-16T08:56:57;7.35;;;2.75;;
67904;SDS011;54709;43.614;1.576;2024-01-16T08:59:23;6.10;;;2.58;;
67904;SDS011;54709;43.614;1.576;2024-01-16T09:01:49;3.58;;;2.50;;
67904;SDS011;54709;43.614;1.576;2024-01-16T09:04:14;2.63;;;2.42;;
67904;SDS011;54709;43.614;1.576;2024-01-16T09:06:39;5.05;;;2.10;;
67904;SDS011;54709;43.614;1.576;2024-01-16T09:09:05;3.95;;;2.20;;
67904;SDS011;54709;43.614;1.576;2024-01-16T09:11:30;5.93;;;2.40;;
67904;SDS011;54709;43.614;1.576;2024-01-16T09:13:57;7.53;;;2.40;;
67904;SDS011;54709;43.614;1.576;2024-01-16T09:16:22;4.82;;;2.78;;
67904;SDS011;54709;43.614;1.576;2024-01-16T09:18:47;3.53;;;2.50;;
67904;SDS011;54709;43.614;1.576;2024-01-16T09:21:13;6.75;;;2.97;;
67904;SDS011;54709;43.614;1.576;2024-01-16T09:23:39;3.85;;;2.50;;
67904;SDS011;54709;43.614;1.576;2024-01-16T09:26:04;7.57;;;2.83;;
67904;SDS011;54709;43.614;1.576;2024-01-16T09:28:30;6.53;;;2.83;;
67904;SDS011;54709;43.614;1.576;2024-01-16T09:30:55;4.13;;;2.50;;
67904;SDS011;54709;43.614;1.576;2024-01-16T09:33:21;8.18;;;2.60;;
67904;SDS011;54709;43.614;1.576;2024-01-16T09:35:48;10.68;;;2.65;;
67904;SDS011;54709;43.614;1.576;2024-01-16T09:38:13;7.28;;;2.65;;
67904;SDS011;54709;43.614;1.576;2024-01-16T09:40:39;5.10;;;2.83;;
67904;SDS011;54709;43.614;1.576;2024-01-16T09:43:04;5.05;;;2.45;;
67904;SDS011;54709;43.614;1.576;2024-01-16T09:45:33;6.85;;;2.72;;
67904;SDS011;54709;43.614;1.576;2024-01-16T09:48:02;4.00;;;2.75;;
67904;SDS011;54709;43.614;1.576;2024-01-16T09:50:28;4.15;;;2.75;;
67904;SDS011;54709;43.614;1.576;2024-01-16T09:52:53;5.53;;;2.50;;
67904;SDS011;54709;43.614;1.576;2024-01-16T09:55:19;4.80;;;2.00;;
67904;SDS011;54709;43.614;1.576;2024-01-16T09:57:46;6.60;;;1.98;;
67904;SDS011;54709;43.614;1.576;2024-01-16T10:00:14;2.40;;;1.80;;
67904;SDS011;54709;43.614;1.576;2024-01-16T10:02:40;5.22;;;1.80;;
67904;SDS011;54709;43.614;1.576;2024-01-16T10:05:10;4.70;;;1.77;;
67904;SDS011;54709;43.614;1.576;2024-01-16T10:07:39;8.13;;;1.88;;
67904;SDS011;54709;43.614;1.576;2024-01-16T10:10:06;6.63;;;1.60;;
67904;SDS011;54709;43.614;1.576;2024-01-16T10:12:35;6.22;;;1.70;;
67904;SDS011;54709;43.614;1.576;2024-01-16T10:15:02;4.70;;;1.55;;
67904;SDS011;54709;43.614;1.576;2024-01-16T10:20:02;5.97;;;1.42;;
67904;SDS011;54709;43.614;1.576;2024-01-16T10:22:29;3.83;;;1.17;;
67904;SDS011;54709;43.614;1.576;2024-01-16T10:27:30;3.80;;;1.73;;
67904;SDS011;54709;43.614;1.576;2024-01-16T10:29:56;5.43;;;1.73;;
67904;SDS011;54709;43.614;1.576;2024-01-16T10:32:29;8.18;;;1.60;;
67904;SDS011;54709;43.614;1.576;2024-01-16T10:35:10;7.97;;;1.73;;
67904;SDS011;54709;43.614;1.576;2024-01-16T10:37:40;5.88;;;1.60;;
67904;SDS011;54709;43.614;1.576;2024-01-16T10:40:09;4.75;;;1.40;;
67904;SDS011;54709;43.614;1.576;2024-01-16T10:42:35;5.65;;;1.40;;
67904;SDS011;54709;43.614;1.576;2024-01-16T10:45:00;3.35;;;1.27;;
67904;SDS011;54709;43.614;1.576;2024-01-16T10:47:26;4.18;;;1.70;;
67904;SDS011;54709;43.614;1.576;2024-01-16T10:49:51;4.35;;;1.27;;
67904;SDS011;54709;43.614;1.576;2024-01-16T10:52:17;8.38;;;1.45;;
67904;SDS011;54709;43.614;1.576;2024-01-16T10:54:43;5.35;;;1.40;;
67904;SDS011;54709;43.614;1.576;2024-01-16T10:57:10;7.53;;;1.50;;
67904;SDS011;54709;43.614;1.576;2024-01-16T10:59:39;13.00;;;1.70;;
67904;SDS011;54709;43.614;1.576;2024-01-16T11:02:11;5.43;;;1.30;;
67904;SDS011;54709;43.614;1.576;2024-01-16T11:04:38;4.90;;;1.40;;
67904;SDS011;54709;43.614;1.576;2024-01-16T11:07:03;10.30;;;1.42;;
67904;SDS011;54709;43.614;1.576;2024-01-16T11:09:30;3.45;;;1.30;;
67904;SDS011;54709;43.614;1.576;2024-01-16T11:11:56;6.20;;;1.50;;
67904;SDS011;54709;43.614;1.576;2024-01-16T11:14:22;6.10;;;1.42;;
67904;SDS011;54709;43.614;1.576;2024-01-16T11:16:48;5.95;;;1.40;;
67904;SDS011;54709;43.614;1.576;2024-01-16T11:19:14;4.93;;;1.33;;
67904;SDS011;54709;43.614;1.576;2024-01-16T11:21:41;5.93;;;1.20;;
67904;SDS011;54709;43.614;1.576;2024-01-16T11:24:07;3.70;;;1.10;;
67904;SDS011;54709;43.614;1.576;2024-01-16T11:26:33;2.22;;;1.00;;
67904;SDS011;54709;43.614;1.576;2024-01-16T11:31:51;3.90;;;1.52;;
67904;SDS011;54709;43.614;1.576;2024-01-16T11:34:16;5.10;;;1.52;;
67904;SDS011;54709;43.614;1.576;2024-01-16T11:37:26;6.65;;;1.50;;
67904;SDS011;54709;43.614;1.576;2024-01-16T11:42:50;6.75;;;1.30;;
67904;SDS011;54709;43.614;1.576;2024-01-16T11:46:03;4.03;;;1.58;;
67904;SDS011;54709;43.614;1.576;2024-01-16T11:48:09;6.85;;;1.80;;
67904;SDS011;54709;43.614;1.576;2024-01-16T11:50:35;5.90;;;1.90;;
67904;SDS011;54709;43.614;1.576;2024-01-16T11:53:01;7.22;;;2.13;;
67904;SDS011;54709;43.614;1.576;2024-01-16T12:00:43;4.93;;;1.10;;
67904;SDS011;54709;43.614;1.576;2024-01-16T12:03:10;3.20;;;1.10;;
67904;SDS011;54709;43.614;1.576;2024-01-16T12:05:38;4.32;;;1.30;;
67904;SDS011;54709;43.614;1.576;2024-01-16T12:08:04;5.72;;;1.55;;
67904;SDS011;54709;43.614;1.576;2024-01-16T12:10:31;3.47;;;1.38;;
67904;SDS011;54709;43.614;1.576;2024-01-16T12:12:58;3.90;;;1.23;;
67904;SDS011;54709;43.614;1.576;2024-01-16T12:15:24;3.33;;;1.10;;
67904;SDS011;54709;43.614;1.576;2024-01-16T12:20:18;5.93;;;1.15;;
67904;SDS011;54709;43.614;1.576;2024-01-16T12:22:43;4.43;;;1.48;;
67904;SDS011;54709;43.614;1.576;2024-01-16T12:25:09;5.10;;;1.17;;
67904;SDS011;54709;43.614;1.576;2024-01-16T12:27:35;2.92;;;1.30;;
67904;SDS011;54709;43.614;1.576;2024-01-16T12:30:07;5.63;;;1.30;;
67904;SDS011;54709;43.614;1.576;2024-01-16T12:32:33;4.10;;;1.20;;
67904;SDS011;54709;43.614;1.576;2024-01-16T12:34:58;5.95;;;1.35;;
67904;SDS011;54709;43.614;1.576;2024-01-16T12:37:24;5.05;;;1.63;;
67904;SDS011;54709;43.614;1.576;2024-01-16T12:39:49;5.97;;;2.00;;
67904;SDS011;54709;43.614;1.576;2024-01-16T12:42:16;3.08;;;1.20;;
67904;SDS011;54709;43.614;1.576;2024-01-16T12:44:42;5.43;;;2.05;;
67904;SDS011;54709;43.614;1.576;2024-01-16T12:47:07;4.47;;;1.67;;
67904;SDS011;54709;43.614;1.576;2024-01-16T12:49:33;4.75;;;1.60;;
67904;SDS011;54709;43.614;1.576;2024-01-16T12:52:14;3.67;;;1.40;;
67904;SDS011;54709;43.614;1.576;2024-01-16T12:54:42;4.47;;;1.30;;
67904;SDS011;54709;43.614;1.576;2024-01-16T12:57:07;4.95;;;1.55;;
67904;SDS011;54709;43.614;1.576;2024-01-16T12:59:38;5.50;;;1.38;;
67904;SDS011;54709;43.614;1.576;2024-01-16T13:02:04;6.18;;;2.25;;
67904;SDS011;54709;43.614;1.576;2024-01-16T13:04:29;3.45;;;1.55;;
67904;SDS011;54709;43.614;1.576;2024-01-16T13:07:15;5.28;;;1.48;;
67904;SDS011;54709;43.614;1.576;2024-01-16T13:09:42;4.60;;;1.83;;
67904;SDS011;54709;43.614;1.576;2024-01-16T13:12:07;4.82;;;1.50;;
67904;SDS011;54709;43.614;1.576;2024-01-16T13:14:32;4.38;;;1.70;;
67904;SDS011;54709;43.614;1.576;2024-01-16T13:16:58;6.07;;;1.33;;
67904;SDS011;54709;43.614;1.576;2024-01-16T13:19:26;2.92;;;1.13;;
67904;SDS011;54709;43.614;1.576;2024-01-16T13:21:51;8.45;;;2.05;;
67904;SDS011;54709;43.614;1.576;2024-01-16T13:24:17;5.15;;;2.15;;
67904;SDS011;54709;43.614;1.576;2024-01-16T13:26:46;3.40;;;1.30;;
67904;SDS011;54709;43.614;1.576;2024-01-16T13:29:11;3.17;;;1.40;;
67904;SDS011;54709;43.614;1.576;2024-01-16T13:31:37;3.78;;;1.65;;
67904;SDS011;54709;43.614;1.576;2024-01-16T13:34:03;5.47;;;1.65;;
67904;SDS011;54709;43.614;1.576;2024-01-16T13:36:29;6.72;;;1.83;;
67904;SDS011;54709;43.614;1.576;2024-01-16T13:38:55;4.75;;;1.45;;
67904;SDS011;54709;43.614;1.576;2024-01-16T13:41:20;4.25;;;1.20;;
67904;SDS011;54709;43.614;1.576;2024-01-16T13:43:46;4.35;;;1.60;;
67904;SDS011;54709;43.614;1.576;2024-01-16T13:46:14;6.68;;;2.10;;
67904;SDS011;54709;43.614;1.576;2024-01-16T13:48:40;3.13;;;1.50;;
67904;SDS011;54709;43.614;1.576;2024-01-16T13:51:06;5.18;;;1.98;;
67904;SDS011;54709;43.614;1.576;2024-01-16T13:53:32;6.15;;;2.17;;
67904;SDS011;54709;43.614;1.576;2024-01-16T13:55:57;3.03;;;1.50;;
67904;SDS011;54709;43.614;1.576;2024-01-16T13:58:23;5.10;;;1.40;;
67904;SDS011;54709;43.614;1.576;2024-01-16T14:00:48;4.68;;;1.27;;
67904;SDS011;54709;43.614;1.576;2024-01-16T14:03:14;4.35;;;1.30;;
67904;SDS011;54709;43.614;1.576;2024-01-16T14:05:39;3.40;;;1.17;;
67904;SDS011;54709;43.614;1.576;2024-01-16T14:08:07;3.63;;;1.33;;
67904;SDS011;54709;43.614;1.576;2024-01-16T14:10:33;9.02;;;1.80;;
67904;SDS011;54709;43.614;1.576;2024-01-16T14:12:58;3.50;;;1.75;;
67904;SDS011;54709;43.614;1.576;2024-01-16T14:15:26;4.65;;;1.60;;
67904;SDS011;54709;43.614;1.576;2024-01-16T14:17:52;2.95;;;1.40;;
67904;SDS011;54709;43.614;1.576;2024-01-16T14:20:18;2.50;;;1.50;;
67904;SDS011;54709;43.614;1.576;2024-01-16T14:22:47;4.90;;;1.88;;
67904;SDS011;54709;43.614;1.576;2024-01-16T14:25:13;5.35;;;1.60;;
67904;SDS011;54709;43.614;1.576;2024-01-16T14:27:43;4.93;;;1.55;;
67904;SDS011;54709;43.614;1.576;2024-01-16T14:30:13;3.88;;;1.30;;
67904;SDS011;54709;43.614;1.576;2024-01-16T14:32:40;3.88;;;1.27;;
67904;SDS011;54709;43.614;1.576;2024-01-16T14:35:06;2.60;;;1.15;;
67904;SDS011;54709;43.614;1.576;2024-01-16T14:37:32;5.50;;;1.50;;
67904;SDS011;54709;43.614;1.576;2024-01-16T14:39:59;2.92;;;1.30;;
67904;SDS011;54709;43.614;1.576;2024-01-16T14:42:28;5.07;;;1.33;;
67904;SDS011;54709;43.614;1.576;2024-01-16T14:44:54;2.33;;;1.00;;
67904;SDS011;54709;43.614;1.576;2024-01-16T14:47:19;4.00;;;1.25;;
67904;SDS011;54709;43.614;1.576;2024-01-16T14:49:45;4.75;;;1.40;;
67904;SDS011;54709;43.614;1.576;2024-01-16T14:52:11;5.88;;;1.30;;
67904;SDS011;54709;43.614;1.576;2024-01-16T14:54:37;4.45;;;1.30;;
67904;SDS011;54709;43.614;1.576;2024-01-16T14:57:03;4.25;;;1.48;;
67904;SDS011;54709;43.614;1.576;2024-01-16T14:59:29;4.25;;;1.52;;
67904;SDS011;54709;43.614;1.576;2024-01-16T15:01:55;5.22;;;1.20;;